createdAt,value
2018-02-07T08:48:35.933Z,165
2018-02-07T08:49:34.708Z,170
2018-02-07T08:50:34.907Z,165
2018-02-07T08:51:35.692Z,165
2018-02-07T08:52:35.750Z,165
2018-02-07T08:53:36.062Z,175
2018-02-07T08:54:37.150Z,190
2018-02-07T08:55:37.069Z,195
2018-02-07T08:56:37.309Z,195
2018-02-07T08:57:36.760Z,195
2018-02-07T08:58:37.063Z,200
2018-02-07T08:59:37.155Z,210
2018-02-07T09:00:37.596Z,225
2018-02-07T09:01:36.787Z,230
2018-02-07T09:02:36.998Z,235
2018-02-07T09:03:36.973Z,240
2018-02-07T09:04:37.246Z,240
2018-02-07T09:05:37.712Z,245
2018-02-07T09:06:37.428Z,260
2018-02-07T09:07:38.036Z,260
2018-02-07T09:08:38.268Z,275
2018-02-07T09:09:38.289Z,290
2018-02-07T09:10:38.024Z,295
2018-02-07T09:11:38.834Z,305
2018-02-07T09:12:39.095Z,315
2018-02-07T09:13:39.982Z,315
2018-02-07T09:14:38.905Z,305
2018-02-07T09:15:38.436Z,290
2018-02-07T09:16:39.717Z,270
2018-02-07T09:17:38.516Z,250
2018-02-07T09:18:38.347Z,245
2018-02-07T09:19:38.254Z,245
2018-02-07T09:20:38.717Z,235
2018-02-07T09:21:39.563Z,230
2018-02-07T09:22:39.208Z,265
2018-02-07T09:23:39.418Z,440
2018-02-07T09:24:40.596Z,355
2018-02-07T09:25:40.124Z,510
2018-02-07T09:26:40.871Z,670
2018-02-07T09:27:39.583Z,515
2018-02-07T09:28:40.828Z,405
2018-02-07T09:29:39.988Z,755
2018-02-07T09:30:40.153Z,875
2018-02-07T09:31:40.539Z,795
2018-02-07T09:32:40.467Z,770
2018-02-07T09:33:40.730Z,640
2018-02-07T09:34:40.497Z,385
2018-02-07T09:35:41.541Z,670
2018-02-07T09:36:40.768Z,610
2018-02-07T09:37:41.057Z,705
2018-02-07T09:38:41.390Z,330
2018-02-07T09:39:41.425Z,300
2018-02-07T09:40:41.415Z,565
2018-02-07T09:41:42.251Z,630
2018-02-07T09:42:41.989Z,700
2018-02-07T09:43:42.277Z,335
2018-02-07T09:44:42.770Z,620
2018-02-07T09:45:43.020Z,715
2018-02-07T09:46:43.605Z,365
2018-02-07T09:47:42.630Z,550
2018-02-07T09:48:42.160Z,545
2018-02-07T09:49:42.209Z,545
2018-02-07T09:50:42.269Z,595
2018-02-07T09:51:42.592Z,645
2018-02-07T09:52:42.817Z,640
2018-02-07T09:53:42.873Z,645
2018-02-07T09:54:43.266Z,690
2018-02-07T09:55:42.376Z,670
2018-02-07T09:56:43.484Z,720
2018-02-07T09:57:42.997Z,710
2018-02-07T09:58:43.328Z,690
2018-02-07T09:59:44.646Z,675
2018-02-07T10:00:43.856Z,680
2018-02-07T10:01:44.130Z,690
2018-02-07T10:02:44.098Z,695
2018-02-07T10:03:43.733Z,690
2018-02-07T10:04:44.409Z,695
2018-02-07T10:05:43.560Z,705
2018-02-07T10:06:44.111Z,705
2018-02-07T10:07:44.589Z,710
2018-02-07T10:08:45.207Z,700
2018-02-07T10:09:44.859Z,675
2018-02-07T10:10:45.596Z,660
2018-02-07T10:11:46.193Z,670
2018-02-07T10:12:46.714Z,675
2018-02-07T10:13:45.746Z,670
2018-02-07T10:14:46.706Z,660
2018-02-07T10:15:46.125Z,655
2018-02-07T10:16:46.412Z,670
2018-02-07T10:17:46.442Z,660
2018-02-07T10:18:46.856Z,650
2018-02-07T10:19:46.494Z,650
2018-02-07T10:20:46.918Z,635
2018-02-07T10:21:48.054Z,610
2018-02-07T10:22:47.953Z,595
2018-02-07T10:23:47.388Z,585
2018-02-07T10:24:47.585Z,575
2018-02-07T10:25:46.476Z,560
2018-02-07T10:26:47.204Z,535
2018-02-07T10:27:47.277Z,525
2018-02-07T10:28:46.794Z,495
2018-02-07T10:29:46.777Z,415
2018-02-07T10:30:47.517Z,520
2018-02-07T10:31:47.022Z,455
2018-02-07T10:32:47.527Z,410
2018-02-07T10:33:47.976Z,335
2018-02-07T10:34:47.461Z,365
2018-02-07T10:35:47.331Z,305
2018-02-07T10:36:47.819Z,310
2018-02-07T10:37:47.869Z,300
2018-02-07T10:38:48.293Z,285
2018-02-07T10:39:48.143Z,310
2018-02-07T10:40:47.647Z,315
2018-02-07T10:41:48.245Z,350
2018-02-07T10:42:47.965Z,345
2018-02-07T10:43:48.258Z,345
2018-02-07T10:44:47.211Z,355
2018-02-07T10:45:48.303Z,360
2018-02-07T10:46:47.812Z,325
2018-02-07T10:47:47.577Z,330
2018-02-07T10:48:48.481Z,300
2018-02-07T10:49:50.010Z,275
2018-02-07T10:50:49.588Z,275
2018-02-07T10:51:49.285Z,275
2018-02-07T10:52:48.621Z,265
2018-02-07T10:53:49.890Z,255
2018-02-07T10:54:50.003Z,245
2018-02-07T10:55:48.904Z,235
2018-02-07T10:56:49.145Z,230
2018-02-07T10:57:49.496Z,230
2018-02-07T10:58:49.301Z,230
2018-02-07T10:59:48.955Z,225
2018-02-07T11:00:48.891Z,220
2018-02-07T11:01:49.105Z,225
2018-02-07T11:02:48.586Z,225
2018-02-07T11:03:48.851Z,230
2018-02-07T11:04:48.876Z,235
2018-02-07T11:05:49.173Z,235
2018-02-07T11:06:49.770Z,240
2018-02-07T11:07:49.893Z,245
2018-02-07T11:08:49.827Z,250
2018-02-07T11:09:50.764Z,265
2018-02-07T11:10:50.197Z,275
2018-02-07T11:11:50.987Z,280
2018-02-07T11:12:51.267Z,280
2018-02-07T11:13:51.177Z,280
2018-02-07T11:14:50.864Z,280
2018-02-07T11:15:51.528Z,280
2018-02-07T11:16:51.184Z,275
2018-02-07T11:17:51.245Z,275
2018-02-07T11:18:51.066Z,270
2018-02-07T11:19:51.761Z,260
2018-02-07T11:20:51.951Z,255
2018-02-07T11:21:51.811Z,245
2018-02-07T11:22:51.216Z,240
2018-02-07T11:23:51.895Z,235
2018-02-07T11:24:51.253Z,230
2018-02-07T11:25:51.681Z,225
2018-02-07T11:26:52.233Z,225
2018-02-07T11:27:52.610Z,230
2018-02-07T11:28:53.930Z,225
2018-02-07T11:29:52.466Z,215
2018-02-07T11:30:53.534Z,210
2018-02-07T11:31:53.353Z,210
2018-02-07T11:32:53.634Z,210
2018-02-07T11:33:54.379Z,215
2018-02-07T11:34:52.580Z,220
2018-02-07T11:35:52.996Z,225
2018-02-07T11:36:55.185Z,225
2018-02-07T11:37:55.431Z,220
2018-02-07T11:38:55.621Z,220
2018-02-07T11:39:54.040Z,215
2018-02-07T11:40:55.367Z,215
2018-02-07T11:41:54.955Z,200
2018-02-07T11:42:54.612Z,190
2018-02-07T11:43:55.533Z,190
2018-02-07T11:44:55.353Z,200
2018-02-07T11:45:54.963Z,200
2018-02-07T11:46:55.223Z,200
2018-02-07T11:47:54.957Z,195
2018-02-07T11:48:54.758Z,185
2018-02-07T11:49:55.444Z,185
2018-02-07T11:50:56.116Z,185
2018-02-07T11:51:56.019Z,175
2018-02-07T11:52:54.985Z,170
2018-02-07T11:53:56.696Z,175
2018-02-07T11:54:55.651Z,180
2018-02-07T11:55:55.471Z,185
2018-02-07T11:56:55.177Z,180
2018-02-07T11:57:55.237Z,185
2018-02-07T11:58:54.818Z,185
2018-02-07T11:59:55.241Z,175
2018-02-07T12:00:56.928Z,175
2018-02-07T12:01:55.576Z,175
2018-02-07T12:02:55.472Z,175
2018-02-07T12:03:55.720Z,175
2018-02-07T12:04:56.794Z,180
2018-02-07T12:05:57.079Z,190
2018-02-07T12:06:57.061Z,190
2018-02-07T12:07:55.951Z,185
2018-02-07T12:08:56.679Z,190
2018-02-07T12:09:56.692Z,195
2018-02-07T12:10:56.714Z,200
2018-02-07T12:11:56.371Z,205
2018-02-07T12:12:56.915Z,210
2018-02-07T12:13:56.794Z,195
2018-02-07T12:14:57.440Z,190
2018-02-07T12:15:57.609Z,190
2018-02-07T12:16:57.426Z,190
2018-02-07T12:17:56.981Z,185
2018-02-07T12:18:58.213Z,195
2018-02-07T12:19:59.247Z,205
2018-02-07T12:20:56.830Z,215
2018-02-07T12:21:57.696Z,215
2018-02-07T12:22:57.942Z,220
2018-02-07T12:23:58.168Z,215
2018-02-07T12:24:57.758Z,215
2018-02-07T12:25:57.942Z,220
2018-02-07T12:26:57.735Z,215
2018-02-07T12:27:58.382Z,215
2018-02-07T12:28:57.868Z,220
2018-02-07T12:29:58.068Z,215
2018-02-07T12:30:58.667Z,210
2018-02-07T12:31:58.656Z,220
2018-02-07T12:32:57.844Z,220
2018-02-07T12:33:58.185Z,220
2018-02-07T12:34:59.107Z,215
2018-02-07T12:35:58.895Z,205
2018-02-07T12:36:59.275Z,195
2018-02-07T12:37:59.397Z,185
2018-02-07T12:38:59.383Z,190
2018-02-07T12:39:58.977Z,185
2018-02-07T12:40:59.997Z,175
2018-02-07T12:41:59.382Z,180
2018-02-07T12:42:59.651Z,180
2018-02-07T12:43:59.772Z,170
2018-02-07T12:44:59.924Z,160
2018-02-07T12:45:59.937Z,150
2018-02-07T12:46:59.501Z,145
2018-02-07T12:48:00.082Z,145
2018-02-07T12:49:00.772Z,140
2018-02-07T12:50:01.372Z,130
2018-02-07T12:51:01.489Z,130
2018-02-07T12:52:01.134Z,135
2018-02-07T12:53:01.202Z,140
2018-02-07T12:54:01.406Z,150
2018-02-07T12:55:00.866Z,145
2018-02-07T12:56:01.628Z,135
2018-02-07T12:57:01.624Z,150
2018-02-07T12:58:01.777Z,150
2018-02-07T12:59:01.159Z,150
2018-02-07T13:01:02.761Z,150
2018-02-07T13:02:02.212Z,150
2018-02-07T13:03:02.255Z,145
2018-02-07T13:04:02.296Z,145
2018-02-07T13:05:02.306Z,140
2018-02-07T13:06:01.744Z,140
2018-02-07T13:07:02.842Z,140
2018-02-07T13:08:02.110Z,140
2018-02-07T13:09:01.732Z,140
2018-02-07T13:10:02.571Z,140
2018-02-07T13:11:02.995Z,140
2018-02-07T13:12:03.614Z,130
2018-02-07T13:13:02.253Z,120
2018-02-07T13:14:02.288Z,120
2018-02-07T13:15:02.635Z,120
2018-02-07T13:16:02.818Z,120
2018-02-07T13:17:02.832Z,125
2018-02-07T13:18:02.751Z,130
2018-02-07T13:19:03.023Z,135
2018-02-07T13:20:03.596Z,135
2018-02-07T13:21:03.980Z,140
2018-02-07T13:22:03.889Z,140
2018-02-07T13:23:03.581Z,145
2018-02-07T13:24:04.221Z,145
2018-02-07T13:25:04.373Z,150
2018-02-07T13:26:04.502Z,150
2018-02-07T13:27:04.826Z,150
2018-02-07T13:28:04.773Z,150
2018-02-07T13:29:04.820Z,150
2018-02-07T13:30:05.511Z,150
2018-02-07T13:31:05.209Z,150
2018-02-07T13:32:04.946Z,145
2018-02-07T13:33:05.359Z,145
2018-02-07T13:34:05.278Z,140
2018-02-07T13:35:05.821Z,135
2018-02-07T13:36:06.937Z,135
2018-02-07T13:37:06.894Z,130
2018-02-07T13:38:06.655Z,125
2018-02-07T13:39:05.913Z,125
2018-02-07T13:40:06.531Z,125
2018-02-07T13:41:07.200Z,135
2018-02-07T13:42:06.850Z,130
2018-02-07T13:43:07.924Z,125
2018-02-07T13:44:07.747Z,120
2018-02-07T13:45:07.016Z,115
2018-02-07T13:46:07.580Z,120
2018-02-07T13:47:07.706Z,120
2018-02-07T13:48:07.874Z,110
2018-02-07T13:49:07.874Z,105
2018-02-07T13:50:07.577Z,100
2018-02-07T13:51:08.318Z,100
2018-02-07T13:52:08.424Z,100
2018-02-07T13:53:08.766Z,100
2018-02-07T13:54:08.897Z,95
2018-02-07T13:55:09.386Z,100
2018-02-07T13:56:09.249Z,100
2018-02-07T13:57:09.277Z,100
2018-02-07T13:58:09.176Z,105
2018-02-07T13:59:09.767Z,105
2018-02-07T14:01:10.734Z,105
2018-02-07T14:02:10.812Z,105
2018-02-07T14:03:09.909Z,105
2018-02-07T14:04:09.879Z,105
2018-02-07T14:05:09.873Z,105
2018-02-07T14:06:10.356Z,105
2018-02-07T14:07:10.654Z,105
2018-02-07T14:08:10.619Z,105
2018-02-07T14:09:10.112Z,105
2018-02-07T14:10:11.188Z,105
2018-02-07T14:11:10.878Z,100
2018-02-07T14:12:10.605Z,100
2018-02-07T14:13:10.703Z,100
2018-02-07T14:14:11.139Z,105
2018-02-07T14:15:11.428Z,105
2018-02-07T14:16:11.693Z,100
2018-02-07T14:17:11.949Z,100
2018-02-07T14:18:12.238Z,100
2018-02-07T14:19:12.475Z,100
2018-02-07T14:20:12.440Z,100
2018-02-07T14:21:12.052Z,95
2018-02-07T14:22:12.520Z,95
2018-02-07T14:23:12.672Z,95
2018-02-07T14:24:12.876Z,95
2018-02-07T14:25:13.031Z,95
2018-02-07T14:26:13.181Z,95
2018-02-07T14:27:13.201Z,95
2018-02-07T14:28:13.718Z,95
2018-02-07T14:29:13.819Z,95
2018-02-07T14:30:13.722Z,95
2018-02-07T14:31:13.551Z,95
2018-02-07T14:32:13.775Z,90
2018-02-07T14:33:13.273Z,90
2018-02-07T14:34:13.561Z,90
2018-02-07T14:35:14.407Z,85
2018-02-07T14:36:14.012Z,85
2018-02-07T14:37:14.056Z,85
2018-02-07T14:38:13.799Z,85
2018-02-07T14:39:13.918Z,80
2018-02-07T14:40:14.349Z,80
2018-02-07T14:41:14.131Z,80
2018-02-07T14:42:13.872Z,80
2018-02-07T14:43:14.109Z,80
2018-02-07T14:44:14.709Z,80
2018-02-07T14:45:14.765Z,80
2018-02-07T14:46:14.530Z,75
2018-02-07T14:47:15.244Z,75
2018-02-07T14:48:15.505Z,75
2018-02-07T14:49:15.710Z,75
2018-02-07T14:50:16.176Z,75
2018-02-07T14:51:15.894Z,75
2018-02-07T14:52:16.973Z,70
2018-02-07T14:53:16.682Z,70
2018-02-07T14:54:17.219Z,70
2018-02-07T14:55:17.185Z,70
2018-02-07T14:56:17.369Z,70
2018-02-07T14:57:17.562Z,70
2018-02-07T14:58:18.134Z,65
2018-02-07T14:59:17.860Z,65
2018-02-07T15:00:17.604Z,65
2018-02-07T15:01:18.149Z,65
2018-02-07T15:02:18.283Z,65
2018-02-07T15:03:18.203Z,65
2018-02-07T15:04:18.823Z,60
2018-02-07T15:05:18.987Z,60
2018-02-07T15:06:19.410Z,60
2018-02-07T15:07:19.506Z,60
2018-02-07T15:08:19.425Z,60
2018-02-07T15:09:19.462Z,55
2018-02-07T15:10:20.285Z,55
2018-02-07T15:11:20.144Z,55
2018-02-07T15:12:19.785Z,55
2018-02-07T15:13:20.332Z,55
2018-02-07T15:14:20.707Z,50
2018-02-07T15:15:20.284Z,50
2018-02-07T15:16:20.864Z,50
2018-02-07T15:17:21.530Z,50
2018-02-07T15:18:21.349Z,50
2018-02-07T15:19:21.011Z,45
2018-02-07T15:20:21.214Z,45
2018-02-07T15:21:21.712Z,45
2018-02-07T15:22:21.407Z,45
2018-02-07T15:23:21.551Z,45
2018-02-07T15:24:21.191Z,40
2018-02-07T15:25:21.968Z,40
2018-02-07T15:26:22.440Z,40
2018-02-07T15:27:22.311Z,40
2018-02-07T15:28:22.850Z,40
2018-02-07T15:29:23.002Z,35
2018-02-07T15:30:23.178Z,35
2018-02-07T15:31:23.039Z,35
2018-02-07T15:32:23.904Z,35
2018-02-07T15:33:23.388Z,35
2018-02-07T15:34:23.397Z,30
2018-02-07T15:35:24.021Z,30
2018-02-07T15:36:23.514Z,30
2018-02-07T15:37:23.843Z,30
2018-02-07T15:38:24.556Z,30
2018-02-07T15:39:24.709Z,25
2018-02-07T15:40:24.556Z,25
2018-02-07T15:41:24.557Z,25
2018-02-07T15:42:25.118Z,25
2018-02-07T15:43:24.634Z,25
2018-02-07T15:44:24.978Z,20
2018-02-07T15:45:25.110Z,20
2018-02-07T15:46:25.235Z,20
2018-02-07T15:47:25.339Z,20
2018-02-07T15:48:25.457Z,20
2018-02-07T15:49:25.870Z,15
2018-02-07T15:50:25.430Z,15
2018-02-07T15:51:26.005Z,15
2018-02-07T15:52:25.694Z,15
2018-02-07T15:53:26.429Z,15
2018-02-07T15:54:26.310Z,15
2018-02-07T15:55:27.262Z,10
2018-02-07T15:56:27.204Z,10
2018-02-07T15:57:27.180Z,10
2018-02-07T15:58:26.836Z,10
2018-02-07T15:59:26.025Z,10
2018-02-07T16:00:27.341Z,10
2018-02-07T16:01:27.268Z,5
2018-02-07T16:02:26.712Z,5
2018-02-07T16:03:27.190Z,5
2018-02-07T16:04:27.145Z,5
2018-02-07T16:05:27.123Z,5
2018-02-07T16:06:27.699Z,5
2018-02-07T16:07:29.176Z,5
2018-02-07T16:08:29.241Z,5
2018-02-07T16:09:28.220Z,5
2018-02-07T16:10:28.682Z,0
2018-02-07T16:11:27.217Z,0
2018-02-07T16:12:26.942Z,0
2018-02-07T16:13:27.346Z,0
2018-02-07T16:14:27.939Z,0
2018-02-07T16:15:27.369Z,0
2018-02-07T16:16:29.249Z,0
2018-02-07T16:17:29.031Z,0
2018-02-07T16:18:28.357Z,0
2018-02-07T16:19:28.072Z,0
2018-02-07T16:20:28.595Z,0
2018-02-07T16:21:28.131Z,0
2018-02-07T16:22:28.608Z,0
2018-02-07T16:23:28.686Z,0
2018-02-07T16:24:28.641Z,0
2018-02-07T16:25:28.930Z,0
2018-02-07T16:26:28.853Z,0
2018-02-07T16:27:28.903Z,0
2018-02-07T16:28:29.234Z,0
2018-02-07T16:29:29.256Z,0
2018-02-07T16:30:30.666Z,0
2018-02-07T16:31:31.379Z,0
2018-02-07T16:32:30.591Z,0
2018-02-07T16:33:29.995Z,0
2018-02-07T16:34:30.266Z,0
2018-02-07T16:35:31.442Z,0
2018-02-07T16:36:30.853Z,0
2018-02-07T16:37:30.822Z,0
2018-02-07T16:38:31.696Z,0
2018-02-07T16:39:30.753Z,0
2018-02-07T16:40:31.650Z,0
2018-02-07T16:41:31.146Z,0
2018-02-07T16:42:32.093Z,0
2018-02-07T16:43:31.991Z,0
2018-02-07T16:44:31.474Z,0
2018-02-07T16:45:31.953Z,0
2018-02-07T16:46:31.985Z,0
2018-02-07T16:47:32.378Z,0
2018-02-07T16:48:32.914Z,0
2018-02-07T16:49:32.395Z,0
2018-02-07T16:50:33.131Z,0
2018-02-07T16:51:32.748Z,0
2018-02-07T16:52:33.585Z,0
2018-02-07T16:53:33.479Z,0
2018-02-07T16:54:33.718Z,0
2018-02-07T16:55:34.407Z,0
2018-02-07T16:56:33.788Z,0
2018-02-07T16:57:34.351Z,0
2018-02-07T16:58:33.928Z,0
2018-02-07T16:59:34.052Z,0
2018-02-07T17:00:34.328Z,0
2018-02-07T17:01:34.506Z,0
2018-02-07T17:02:34.845Z,0
2018-02-07T17:03:35.402Z,0
2018-02-07T17:04:35.321Z,0
2018-02-07T17:05:35.049Z,0
2018-02-07T17:06:35.332Z,0
2018-02-07T17:07:34.672Z,0
2018-02-07T17:08:36.048Z,0
2018-02-07T17:09:35.861Z,0
2018-02-07T17:10:36.317Z,0
2018-02-07T17:11:36.346Z,0
2018-02-07T17:12:36.153Z,0
2018-02-07T17:13:36.803Z,0
2018-02-07T17:14:36.004Z,0
2018-02-07T17:15:36.641Z,0
2018-02-07T17:16:36.187Z,0
2018-02-07T17:17:36.125Z,0
2018-02-07T17:18:37.466Z,0
2018-02-07T17:19:37.990Z,0
2018-02-07T17:20:36.869Z,0
2018-02-07T17:21:36.913Z,0
2018-02-07T17:22:35.925Z,0
2018-02-07T17:23:36.736Z,0
2018-02-07T17:24:35.765Z,0
2018-02-07T17:25:36.309Z,0
2018-02-07T17:26:36.168Z,0
2018-02-07T17:27:36.351Z,0
2018-02-07T17:28:36.040Z,0
2018-02-07T17:29:37.194Z,0
2018-02-07T17:30:37.043Z,0
2018-02-07T17:31:36.700Z,0
2018-02-07T17:32:37.544Z,0
2018-02-07T17:33:37.576Z,0
2018-02-07T17:34:37.004Z,0
2018-02-07T17:35:37.480Z,0
2018-02-07T17:36:37.713Z,0
2018-02-07T17:37:37.653Z,0
2018-02-07T17:38:37.774Z,0
2018-02-07T17:39:37.934Z,0
2018-02-07T17:40:38.454Z,0
2018-02-07T17:41:38.418Z,0
2018-02-07T17:42:39.468Z,0
2018-02-07T17:43:39.313Z,0
2018-02-07T17:44:38.795Z,0
2018-02-07T17:45:38.497Z,0
2018-02-07T17:46:39.031Z,0
2018-02-07T17:47:39.701Z,0
2018-02-07T17:48:41.732Z,0
2018-02-07T17:49:39.476Z,0
2018-02-07T17:50:39.708Z,0
2018-02-07T17:51:39.819Z,0
2018-02-07T17:52:39.918Z,0
2018-02-07T17:53:40.490Z,0
2018-02-07T17:54:39.439Z,0
2018-02-07T17:55:40.321Z,0
2018-02-07T17:56:39.426Z,0
2018-02-07T17:57:40.006Z,0
2018-02-07T17:58:39.648Z,0
2018-02-07T17:59:40.430Z,0
2018-02-07T18:00:39.922Z,0
2018-02-07T18:01:39.946Z,0
2018-02-07T18:02:40.533Z,0
2018-02-07T18:03:40.545Z,0
2018-02-07T18:04:40.477Z,0
2018-02-07T18:05:40.191Z,0
2018-02-07T18:06:40.805Z,0
2018-02-07T18:07:40.623Z,0
2018-02-07T18:08:40.439Z,0
2018-02-07T18:09:40.521Z,0
2018-02-07T18:10:41.218Z,0
2018-02-07T18:11:40.771Z,0
2018-02-07T18:12:41.775Z,0
2018-02-07T18:13:41.090Z,0
2018-02-07T18:14:42.058Z,0
2018-02-07T18:15:41.339Z,0
2018-02-07T18:16:41.858Z,0
2018-02-07T18:17:41.884Z,0
2018-02-07T18:18:41.627Z,0
2018-02-07T18:19:42.358Z,0
2018-02-07T18:20:41.553Z,0
2018-02-07T18:21:42.469Z,0
2018-02-07T18:22:42.729Z,0
2018-02-07T18:23:42.667Z,0
2018-02-07T18:24:43.225Z,0
2018-02-07T18:25:43.172Z,0
2018-02-07T18:26:41.939Z,0
2018-02-07T18:27:42.771Z,0
2018-02-07T18:28:42.353Z,0
2018-02-07T18:29:43.041Z,0
2018-02-07T18:30:43.195Z,0
2018-02-07T18:31:43.393Z,0
2018-02-07T18:32:42.677Z,0
2018-02-07T18:33:43.035Z,0
2018-02-07T18:34:43.011Z,0
2018-02-07T18:35:43.918Z,0
2018-02-07T18:36:43.875Z,0
2018-02-07T18:37:43.541Z,0
2018-02-07T18:38:44.025Z,0
2018-02-07T18:39:44.280Z,0
2018-02-07T18:40:44.213Z,0
2018-02-07T18:41:44.695Z,0
2018-02-07T18:42:44.378Z,0
2018-02-07T18:43:44.465Z,0
2018-02-07T18:44:44.523Z,0
2018-02-07T18:45:44.932Z,0
2018-02-07T18:46:45.826Z,0
2018-02-07T18:47:45.368Z,0
2018-02-07T18:48:46.123Z,0
2018-02-07T18:49:45.844Z,0
2018-02-07T18:50:46.936Z,0
2018-02-07T18:51:46.490Z,0
2018-02-07T18:52:46.575Z,0
2018-02-07T18:53:46.924Z,0
2018-02-07T18:54:46.521Z,0
2018-02-07T18:55:47.508Z,0
2018-02-07T18:56:46.952Z,0
2018-02-07T18:57:46.905Z,0
2018-02-07T18:58:46.991Z,0
2018-02-07T18:59:46.578Z,0
2018-02-07T19:00:46.328Z,0
2018-02-07T19:01:46.341Z,0
2018-02-07T19:02:47.008Z,0
2018-02-07T19:03:46.631Z,0
2018-02-07T19:04:47.043Z,0
2018-02-07T19:05:47.216Z,0
2018-02-07T19:06:47.462Z,0
2018-02-07T19:07:47.915Z,0
2018-02-07T19:08:47.877Z,0
2018-02-07T19:09:48.045Z,0
2018-02-07T19:10:48.339Z,0
2018-02-07T19:11:48.761Z,0
2018-02-07T19:12:48.288Z,0
2018-02-07T19:13:48.732Z,0
2018-02-07T19:14:48.877Z,0
2018-02-07T19:15:48.290Z,0
2018-02-07T19:16:48.585Z,0
2018-02-07T19:17:48.365Z,0
2018-02-07T19:18:49.427Z,0
2018-02-07T19:19:49.192Z,0
2018-02-07T19:20:49.106Z,0
2018-02-07T19:21:49.601Z,0
2018-02-07T19:22:50.388Z,0
2018-02-07T19:23:50.527Z,0
2018-02-07T19:24:49.770Z,0
2018-02-07T19:25:49.989Z,0
2018-02-07T19:26:50.743Z,0
2018-02-07T19:27:51.393Z,0
2018-02-07T19:28:50.144Z,0
2018-02-07T19:29:50.361Z,0
2018-02-07T19:30:49.940Z,0
2018-02-07T19:31:49.942Z,0
2018-02-07T19:32:49.553Z,0
2018-02-07T19:33:49.991Z,0
2018-02-07T19:34:49.887Z,0
2018-02-07T19:35:50.444Z,0
2018-02-07T19:36:50.513Z,0
2018-02-07T19:37:50.480Z,0
2018-02-07T19:38:50.454Z,0
2018-02-07T19:39:52.003Z,0
2018-02-07T19:40:50.330Z,0
2018-02-07T19:41:50.022Z,0
2018-02-07T19:42:50.498Z,0
2018-02-07T19:43:50.483Z,0
2018-02-07T19:44:50.560Z,0
2018-02-07T19:45:50.176Z,0
2018-02-07T19:46:50.806Z,0
2018-02-07T19:47:51.289Z,0
2018-02-07T19:48:51.767Z,0
2018-02-07T19:49:51.117Z,0
2018-02-07T19:50:51.370Z,0
2018-02-07T19:51:51.323Z,0
2018-02-07T19:52:52.019Z,0
2018-02-07T19:53:51.924Z,0
2018-02-07T19:54:51.435Z,0
2018-02-07T19:55:51.641Z,0
2018-02-07T19:56:51.570Z,0
2018-02-07T19:57:51.699Z,0
2018-02-07T19:58:52.070Z,0
2018-02-07T19:59:53.179Z,0
2018-02-07T20:00:52.593Z,0
2018-02-07T20:01:53.055Z,0
2018-02-07T20:02:52.989Z,0
2018-02-07T20:03:52.944Z,0
2018-02-07T20:04:52.128Z,0
2018-02-07T20:05:52.839Z,0
2018-02-07T20:06:53.190Z,0
2018-02-07T20:07:52.840Z,0
2018-02-07T20:08:52.470Z,0
2018-02-07T20:09:53.384Z,0
2018-02-07T20:10:53.136Z,0
2018-02-07T20:11:53.128Z,0
2018-02-07T20:12:52.892Z,0
2018-02-07T20:13:52.857Z,0
2018-02-07T20:14:53.228Z,0
2018-02-07T20:15:53.098Z,0
2018-02-07T20:16:53.990Z,0
2018-02-07T20:17:53.180Z,0
2018-02-07T20:18:53.515Z,0
2018-02-07T20:19:54.321Z,0
2018-02-07T20:20:55.067Z,0
2018-02-07T20:21:54.714Z,0
2018-02-07T20:22:53.594Z,0
2018-02-07T20:23:54.061Z,0
2018-02-07T20:24:54.708Z,0
2018-02-07T20:25:54.714Z,0
2018-02-07T20:26:54.857Z,0
2018-02-07T20:27:54.371Z,0
2018-02-07T20:28:54.552Z,0
2018-02-07T20:29:54.774Z,0
2018-02-07T20:30:54.785Z,0
2018-02-07T20:31:56.290Z,0
2018-02-07T20:32:56.731Z,0
2018-02-07T20:33:55.773Z,0
2018-02-07T20:34:55.190Z,0
2018-02-07T20:35:55.980Z,0
2018-02-07T20:36:55.296Z,0
2018-02-07T20:37:55.728Z,0
2018-02-07T20:38:56.359Z,0
2018-02-07T20:39:56.375Z,0
2018-02-07T20:40:55.993Z,0
2018-02-07T20:41:55.754Z,0
2018-02-07T20:42:56.787Z,0
2018-02-07T20:43:56.510Z,0
2018-02-07T20:44:57.374Z,0
2018-02-07T20:45:57.468Z,0
2018-02-07T20:46:57.003Z,0
2018-02-07T20:47:57.188Z,0
2018-02-07T20:48:57.494Z,0
2018-02-07T20:49:57.435Z,0
2018-02-07T20:50:57.666Z,0
2018-02-07T20:51:58.188Z,0
2018-02-07T20:52:58.005Z,0
2018-02-07T20:53:58.185Z,0
2018-02-07T20:54:58.706Z,0
2018-02-07T20:55:58.690Z,0
2018-02-07T20:56:58.996Z,0
2018-02-07T20:57:59.142Z,0
2018-02-07T20:58:59.064Z,0
2018-02-07T20:59:59.263Z,0
2018-02-07T21:00:59.739Z,0
2018-02-07T21:01:59.529Z,0
2018-02-07T21:03:00.415Z,0
2018-02-07T21:04:00.026Z,0
2018-02-07T21:04:59.790Z,0
2018-02-07T21:05:59.871Z,0
2018-02-07T21:06:59.633Z,0
2018-02-07T21:08:00.362Z,0
2018-02-07T21:08:59.851Z,0
2018-02-07T21:10:00.546Z,0
2018-02-07T21:11:00.670Z,0
2018-02-07T21:12:00.158Z,0
2018-02-07T21:13:01.106Z,0
2018-02-07T21:14:00.482Z,0
2018-02-07T21:15:00.757Z,0
2018-02-07T21:16:00.633Z,0
2018-02-07T21:17:01.088Z,0
2018-02-07T21:18:00.861Z,0
2018-02-07T21:19:00.436Z,0
2018-02-07T21:20:00.849Z,0
2018-02-07T21:21:01.100Z,0
2018-02-07T21:22:00.706Z,0
2018-02-07T21:23:01.231Z,0
2018-02-07T21:24:01.226Z,0
2018-02-07T21:25:01.174Z,0
2018-02-07T21:26:01.899Z,0
2018-02-07T21:27:02.352Z,0
2018-02-07T21:28:01.267Z,0
2018-02-07T21:29:01.200Z,0
2018-02-07T21:30:01.513Z,0
2018-02-07T21:31:01.849Z,0
2018-02-07T21:32:02.241Z,0
2018-02-07T21:33:02.722Z,0
2018-02-07T21:34:02.537Z,0
2018-02-07T21:35:03.610Z,0
2018-02-07T21:36:02.504Z,0
2018-02-07T21:37:02.658Z,0
2018-02-07T21:38:02.090Z,0
2018-02-07T21:39:03.248Z,0
2018-02-07T21:40:03.298Z,0
2018-02-07T21:41:03.247Z,0
2018-02-07T21:42:02.557Z,0
2018-02-07T21:43:02.877Z,0
2018-02-07T21:44:02.979Z,0
2018-02-07T21:45:02.995Z,0
2018-02-07T21:46:02.956Z,0
2018-02-07T21:47:02.999Z,0
2018-02-07T21:48:03.137Z,0
2018-02-07T21:49:02.642Z,0
2018-02-07T21:50:03.129Z,0
2018-02-07T21:51:03.050Z,0
2018-02-07T21:52:03.884Z,0
2018-02-07T21:53:03.412Z,0
2018-02-07T21:54:03.445Z,0
2018-02-07T21:55:03.192Z,0
2018-02-07T21:56:04.259Z,0
2018-02-07T21:57:05.892Z,0
2018-02-07T21:58:05.887Z,0
2018-02-07T21:59:05.098Z,0
2018-02-07T22:01:04.957Z,0
2018-02-07T22:02:05.138Z,0
2018-02-07T22:03:04.677Z,0
2018-02-07T22:04:04.673Z,0
2018-02-07T22:05:06.276Z,0
2018-02-07T22:06:06.249Z,0
2018-02-07T22:07:06.069Z,0
2018-02-07T22:08:06.332Z,0
2018-02-07T22:09:05.603Z,0
2018-02-07T22:10:05.847Z,0
2018-02-07T22:11:06.103Z,0
2018-02-07T22:12:05.373Z,0
2018-02-07T22:13:05.371Z,0
2018-02-07T22:14:06.122Z,0
2018-02-07T22:15:05.114Z,0
2018-02-07T22:16:05.113Z,0
2018-02-07T22:17:04.637Z,0
2018-02-07T22:18:04.908Z,0
2018-02-07T22:19:05.096Z,0
2018-02-07T22:20:05.531Z,0
2018-02-07T22:21:04.889Z,0
2018-02-07T22:22:05.159Z,0
2018-02-07T22:23:05.289Z,0
2018-02-07T22:24:05.965Z,0
2018-02-07T22:25:05.699Z,0
2018-02-07T22:26:05.984Z,0
2018-02-07T22:27:06.028Z,0
2018-02-07T22:28:05.801Z,0
2018-02-07T22:29:05.674Z,0
2018-02-07T22:30:06.027Z,0
2018-02-07T22:31:06.203Z,0
2018-02-07T22:32:07.159Z,0
2018-02-07T22:33:06.977Z,0
2018-02-07T22:34:07.257Z,0
2018-02-07T22:35:06.826Z,0
2018-02-07T22:36:07.665Z,0
2018-02-07T22:37:07.364Z,0
2018-02-07T22:38:08.357Z,0
2018-02-07T22:39:07.645Z,0
2018-02-07T22:40:07.350Z,0
2018-02-07T22:41:07.909Z,0
2018-02-07T22:42:07.646Z,0
2018-02-07T22:43:08.217Z,0
2018-02-07T22:44:08.486Z,0
2018-02-07T22:45:07.927Z,0
2018-02-07T22:46:07.884Z,0
2018-02-07T22:47:08.284Z,0
2018-02-07T22:48:08.869Z,0
2018-02-07T22:49:09.313Z,0
2018-02-07T22:50:08.289Z,0
2018-02-07T22:51:08.804Z,0
2018-02-07T22:52:09.615Z,0
2018-02-07T22:53:09.306Z,0
2018-02-07T22:54:10.098Z,0
2018-02-07T22:55:09.870Z,0
2018-02-07T22:56:09.871Z,0
2018-02-07T22:57:09.860Z,0
2018-02-07T22:58:10.947Z,0
2018-02-07T22:59:11.481Z,0
2018-02-07T23:00:25.553Z,0
2018-02-07T23:01:11.058Z,0
2018-02-07T23:02:10.851Z,0
2018-02-07T23:03:12.796Z,0
2018-02-07T23:04:10.584Z,0
2018-02-07T23:05:12.673Z,0
2018-02-07T23:06:11.400Z,0
2018-02-07T23:07:11.839Z,0
2018-02-07T23:08:11.768Z,0
2018-02-07T23:09:11.393Z,0
2018-02-07T23:10:12.029Z,0
2018-02-07T23:11:12.483Z,0
2018-02-07T23:12:12.318Z,0